Jaicos, Brazil
Current Conditions -  °F | °C
As of 9:00 PM on Sunday 21 Dec 2014 (Local Time) from SBJU Reporting Station
Scattered Clouds Scattered Clouds  
Wind Chill: 86°   Ceiling: Unl
Heat Index: 88°   Visibility: 6mi
Dew Point: 66°   Wind: 2mph
Humidity: 51%   Direction: 170°S
Pressure: 30"   Gusts: NA
Location:  7.36°S, 41.14°W
Report Text: SBJU 220000Z 17002KT 9999 SCT020 30/19 Q1016
Loading
Personal Weather Stations






























Interactive Weather Map New forecast layout! Learn more

10-Day Weather Forecast

Advertisements
Track Severe Weather on mobile